Airfield :







YOU CAN JOIN US ON...

 
LOGIN :

Register | Disclaimer

   EN    FR    IT 

 









Legend :    VFR   Marginal VFR   IFR   Intensive IFR   Very Intensive IFR
Visi :
Ceiling :
>= 8 km
>= 3000ft
5 to 8 km
1000 to 3000 ft
1500m to 5 km
500 to 1000 ft
800 to 1500m
200 to 500 ft
< 800m
< 200 ft
Symbols :   Thunderstorms  Fog  Heavy snow  Heavy precipitations  Wind > 20 kt







- Airport Elevation : 241 ft
- IATA code : CEF


KCEF - Westover ARB/Metropolitan

CURRENT METAR :
  • 260456Z AUTO 06003KT 10SM CLR 09/08 A3027 RMK AO2 SLP256 T00880079 402310087

EXPIRED METARs :
  • 260356Z AUTO 06003KT 10SM CLR 10/08 A3028 RMK AO2 SLP260 T01010082
  • 260256Z 00000KT 10SM CLR 11/09 A3029 RMK AO2A SLP263 T01090085 50004

TAF TAF KCEF
Valid from the 26 at 02:00 until the 27 at 08:00 UTC


260200Z 2602/2708 VRB06KT 9999 SKC QNH3027INS
BECMG 2608/2609 VRB06KT 9999 SCT010 QNH3027INS
BECMG 2613/2614 07009KT 9999 SCT025 QNH3025INS
BECMG 2615/2616 07012KT 9999 SCT040 QNH3018INS
BECMG 2621/2622 VRB06KT 9999 FEW045 FEW250 QNH3018INS TX24/2620Z TN09/2610Z LAST NO AMDS AFT 2603 NEXT 2610
No reported NOTAMs for that airfield.



MET'MAP, your aeronautical weather chart ! - Copyright ORBIFLY December 2007 - Disclaimer

ORBIFLY MET'MAP TEAM :

Programming & Development : Alexandra Zaïnal
Concept & Development : Baudouin d'Aumeries
Co-Development & Prog : Marc-Olivier Méhu
Technical & hardware support : Manuel Goepfert

Contact : metmap@orbifly.com




SOURCES & CREDITS :

   NOAA